createdAt,value
2018-03-18T00:00:43.557Z,-3.59
2018-03-18T00:01:53.024Z,-3.58
2018-03-18T00:03:02.740Z,-3.59
2018-03-18T00:04:12.702Z,-3.62
2018-03-18T00:05:22.143Z,-3.65
2018-03-18T00:06:31.064Z,-3.64
2018-03-18T00:07:40.498Z,-3.62
2018-03-18T00:08:50.189Z,-3.68
2018-03-18T00:10:00.169Z,-3.64
2018-03-18T00:11:09.880Z,-3.64
2018-03-18T00:12:19.849Z,-3.61
2018-03-18T00:13:29.577Z,-3.68
2018-03-18T00:14:39.796Z,-3.68
2018-03-18T00:15:49.513Z,-3.68
2018-03-18T00:16:58.686Z,-3.75
2018-03-18T00:18:08.385Z,-3.64
2018-03-18T00:19:17.814Z,-3.66
2018-03-18T00:20:27.530Z,-3.65
2018-03-18T00:21:37.493Z,-3.69
2018-03-18T00:22:46.947Z,-3.74
2018-03-18T00:23:56.144Z,-3.78
2018-03-18T00:25:05.330Z,-3.64
2018-03-18T00:26:14.761Z,-3.71
2018-03-18T00:27:24.463Z,-3.77
2018-03-18T00:28:34.163Z,-3.77
2018-03-18T00:29:43.865Z,-3.78
2018-03-18T00:30:53.563Z,-3.8
2018-03-18T00:32:03.263Z,-3.8
2018-03-18T00:33:12.991Z,-3.83
2018-03-18T00:34:22.944Z,-3.8
2018-03-18T00:35:32.633Z,-3.78
2018-03-18T00:36:42.581Z,-3.8
2018-03-18T00:37:52.295Z,-3.83
2018-03-18T00:39:01.997Z,-3.84
2018-03-18T00:40:11.184Z,-3.83
2018-03-18T00:41:20.892Z,-3.85
2018-03-18T00:42:30.850Z,-3.85
2018-03-18T00:43:40.551Z,-3.87
2018-03-18T00:44:49.989Z,-3.83
2018-03-18T00:45:59.931Z,-3.95
2018-03-18T00:47:09.388Z,-3.87
2018-03-18T00:48:19.100Z,-3.98
2018-03-18T00:49:28.010Z,-3.95
2018-03-18T00:50:37.709Z,-3.96
2018-03-18T00:51:47.143Z,-3.98
2018-03-18T00:52:56.843Z,-3.94
2018-03-18T00:54:06.565Z,-3.98
2018-03-18T00:55:16.904Z,-3.98
2018-03-18T00:56:26.875Z,-3.91
2018-03-18T00:57:36.853Z,-3.96
2018-03-18T00:58:46.541Z,-3.95
2018-03-18T00:59:56.233Z,-4.04
2018-03-18T01:01:05.915Z,-4.06
2018-03-18T01:02:15.375Z,-4.06
2018-03-18T01:03:25.323Z,-4.08
2018-03-18T01:04:35.025Z,-4.02
2018-03-18T01:05:44.990Z,-4.05
2018-03-18T01:06:54.683Z,-4.02
2018-03-18T01:08:04.644Z,-4.04
2018-03-18T01:09:14.074Z,-4.02
2018-03-18T01:10:23.788Z,-4.04
2018-03-18T01:11:32.972Z,-4.06
2018-03-18T01:12:42.411Z,-4.08
2018-03-18T01:13:52.113Z,-4.12
2018-03-18T01:15:01.546Z,-4.09
2018-03-18T01:16:11.235Z,-4.14
2018-03-18T01:17:20.668Z,-4.14
2018-03-18T01:18:29.325Z,-4.12
2018-03-18T01:19:39.019Z,-4.13
2018-03-18T01:20:48.985Z,-4.2
2018-03-18T01:21:58.988Z,-4.16
2018-03-18T01:23:08.680Z,-4.19
2018-03-18T01:24:18.377Z,-4.23
2018-03-18T01:25:28.335Z,-4.22
2018-03-18T01:26:37.766Z,-4.2
2018-03-18T01:27:47.724Z,-4.34
2018-03-18T01:28:57.415Z,-4.3
2018-03-18T01:30:07.387Z,-4.27
2018-03-18T01:31:17.111Z,-4.34
2018-03-18T01:32:26.299Z,-4.27
2018-03-18T01:33:35.995Z,-4.34
2018-03-18T01:34:45.943Z,-4.34
2018-03-18T01:35:55.901Z,-4.3
2018-03-18T01:37:05.602Z,-4.3
2018-03-18T01:38:15.555Z,-4.3
2018-03-18T01:39:25.251Z,-4.34
2018-03-18T01:40:34.960Z,-4.31
2018-03-18T01:41:44.660Z,-4.37
2018-03-18T01:42:54.613Z,-4.38
2018-03-18T01:44:04.044Z,-4.34
2018-03-18T01:45:14.001Z,-4.35
2018-03-18T01:46:23.431Z,-4.41
2018-03-18T01:47:33.125Z,-4.41
2018-03-18T01:48:42.822Z,-4.38
2018-03-18T01:49:52.781Z,-4.51
2018-03-18T01:51:02.473Z,-4.52
2018-03-18T01:52:12.423Z,-4.41
2018-03-18T01:53:22.110Z,-4.37
2018-03-18T01:54:31.811Z,-4.47
2018-03-18T01:55:41.238Z,-4.4
2018-03-18T01:56:51.187Z,-4.49
2018-03-18T01:58:00.891Z,-4.44
2018-03-18T01:59:10.444Z,-4.34
2018-03-18T02:00:20.405Z,-4.45
2018-03-18T02:01:30.103Z,-4.44
2018-03-18T02:02:39.287Z,-4.42
2018-03-18T02:03:49.236Z,-4.44
2018-03-18T02:04:58.420Z,-4.44
2018-03-18T02:06:08.119Z,-4.44
2018-03-18T02:07:17.809Z,-4.44
2018-03-18T02:08:27.513Z,-4.45
2018-03-18T02:09:37.215Z,-4.51
2018-03-18T02:10:47.171Z,-4.47
2018-03-18T02:11:57.134Z,-4.49
2018-03-18T02:13:06.322Z,-4.44
2018-03-18T02:14:16.009Z,-4.45
2018-03-18T02:15:25.719Z,-4.55
2018-03-18T02:16:35.691Z,-4.51
2018-03-18T02:17:45.631Z,-4.53
2018-03-18T02:18:55.339Z,-4.59
2018-03-18T02:20:04.824Z,-4.51
2018-03-18T02:21:14.518Z,-4.52
2018-03-18T02:22:24.224Z,-4.58
2018-03-18T02:23:34.206Z,-4.63
2018-03-18T02:24:44.152Z,-4.65
2018-03-18T02:25:53.856Z,-4.65
2018-03-18T02:27:03.573Z,-4.58
2018-03-18T02:28:13.264Z,-4.65
2018-03-18T02:29:22.698Z,-4.62
2018-03-18T02:30:32.674Z,-4.59
2018-03-18T02:31:42.694Z,-4.63
2018-03-18T02:32:52.143Z,-4.74
2018-03-18T02:34:01.938Z,-4.65
2018-03-18T02:35:11.660Z,-4.71
2018-03-18T02:36:21.372Z,-4.62
2018-03-18T02:37:31.347Z,-4.7
2018-03-18T02:38:40.261Z,-4.71
2018-03-18T02:39:49.984Z,-4.73
2018-03-18T02:40:59.956Z,-4.74
2018-03-18T02:42:09.948Z,-4.58
2018-03-18T02:43:19.930Z,-4.73
2018-03-18T02:44:29.947Z,-4.74
2018-03-18T02:45:39.648Z,-4.7
2018-03-18T02:46:49.597Z,-4.74
2018-03-18T02:47:59.044Z,-4.71
2018-03-18T02:49:09.002Z,-4.71
2018-03-18T02:50:18.703Z,-4.7
2018-03-18T02:51:28.667Z,-4.71
2018-03-18T02:52:38.110Z,-4.79
2018-03-18T02:53:48.071Z,-4.83
2018-03-18T02:54:57.519Z,-4.8
2018-03-18T02:56:06.956Z,-4.9
2018-03-18T02:57:16.933Z,-4.81
2018-03-18T02:58:26.624Z,-4.76
2018-03-18T02:59:36.610Z,-4.8
2018-03-18T03:00:46.312Z,-4.8
2018-03-18T03:01:55.750Z,-4.79
2018-03-18T03:03:05.299Z,-4.81
2018-03-18T03:04:15.012Z,-4.84
2018-03-18T03:05:24.728Z,-4.9
2018-03-18T03:06:34.171Z,-4.87
2018-03-18T03:07:43.901Z,-4.83
2018-03-18T03:08:54.054Z,-4.91
2018-03-18T03:10:03.479Z,-4.84
2018-03-18T03:11:12.658Z,-4.91
2018-03-18T03:12:22.603Z,-4.9
2018-03-18T03:13:32.560Z,-5
2018-03-18T03:14:41.982Z,-4.97
2018-03-18T03:15:51.930Z,-5
2018-03-18T03:17:01.926Z,-5.01
2018-03-18T03:18:11.914Z,-4.92
2018-03-18T03:19:21.890Z,-4.92
2018-03-18T03:20:31.840Z,-4.94
2018-03-18T03:21:41.544Z,-4.91
2018-03-18T03:22:51.242Z,-4.97
2018-03-18T03:24:01.204Z,-5.01
2018-03-18T03:25:11.162Z,-4.98
2018-03-18T03:26:21.112Z,-5.02
2018-03-18T03:27:31.077Z,-5.02
2018-03-18T03:28:40.802Z,-5.02
2018-03-18T03:29:50.770Z,-5.05
2018-03-18T03:31:00.467Z,-5.01
2018-03-18T03:32:10.454Z,-5.05
2018-03-18T03:33:20.167Z,-5.01
2018-03-18T03:34:29.852Z,-5
2018-03-18T03:35:39.313Z,-5.08
2018-03-18T03:36:49.264Z,-5.05
2018-03-18T03:37:58.958Z,-5.06
2018-03-18T03:39:08.961Z,-5.06
2018-03-18T03:40:18.403Z,-5.06
2018-03-18T03:41:28.369Z,-5.06
2018-03-18T03:42:38.325Z,-5.09
2018-03-18T03:43:48.288Z,-5.01
2018-03-18T03:44:58.242Z,-5.08
2018-03-18T03:46:08.246Z,-5.02
2018-03-18T03:47:18.192Z,-5.05
2018-03-18T03:48:27.877Z,-5.08
2018-03-18T03:49:37.869Z,-5.02
2018-03-18T03:50:47.819Z,-5.05
2018-03-18T03:51:57.763Z,-5.05
2018-03-18T03:53:07.461Z,-5.08
2018-03-18T03:54:17.457Z,-5.05
2018-03-18T03:55:27.154Z,-5.12
2018-03-18T03:56:37.113Z,-5.06
2018-03-18T03:57:46.822Z,-5.02
2018-03-18T03:58:56.768Z,-5.02
2018-03-18T04:00:06.465Z,-5
2018-03-18T04:01:16.155Z,-5.05
2018-03-18T04:02:25.852Z,-5.08
2018-03-18T04:03:35.800Z,-5.08
2018-03-18T04:04:45.752Z,-5.06
2018-03-18T04:05:55.441Z,-5.02
2018-03-18T04:07:05.131Z,-5.1
2018-03-18T04:08:15.106Z,-5.17
2018-03-18T04:09:25.052Z,-5.12
2018-03-18T04:10:34.996Z,-5.13
2018-03-18T04:11:44.943Z,-5.12
2018-03-18T04:12:54.629Z,-5.06
2018-03-18T04:14:04.581Z,-5.08
2018-03-18T04:15:14.535Z,-5.13
2018-03-18T04:16:24.214Z,-5.16
2018-03-18T04:17:33.693Z,-5.16
2018-03-18T04:18:43.390Z,-5.13
2018-03-18T04:19:53.090Z,-5.27
2018-03-18T04:21:02.783Z,-5.13
2018-03-18T04:22:12.755Z,-5.27
2018-03-18T04:23:22.461Z,-5.27
2018-03-18T04:24:32.411Z,-5.2
2018-03-18T04:25:42.357Z,-5.19
2018-03-18T04:26:52.044Z,-5.21
2018-03-18T04:28:01.208Z,-5.23
2018-03-18T04:29:11.162Z,-5.28
2018-03-18T04:30:20.853Z,-5.23
2018-03-18T04:31:30.796Z,-5.25
2018-03-18T04:32:40.549Z,-5.21
2018-03-18T04:33:49.722Z,-5.21
2018-03-18T04:34:59.501Z,-5.31
2018-03-18T04:36:08.936Z,-5.23
2018-03-18T04:37:18.895Z,-5.27
2018-03-18T04:38:28.331Z,-5.23
2018-03-18T04:39:38.028Z,-5.25
2018-03-18T04:40:47.454Z,-5.25
2018-03-18T04:41:57.149Z,-5.28
2018-03-18T04:43:07.111Z,-5.32
2018-03-18T04:44:17.057Z,-5.31
2018-03-18T04:45:26.489Z,-5.34
2018-03-18T04:46:36.447Z,-5.32
2018-03-18T04:47:46.152Z,-5.27
2018-03-18T04:48:55.861Z,-5.41
2018-03-18T04:50:05.295Z,-5.39
2018-03-18T04:51:14.984Z,-5.3
2018-03-18T04:52:24.216Z,-5.31
2018-03-18T04:53:33.915Z,-5.28
2018-03-18T04:54:43.935Z,-5.32
2018-03-18T04:55:53.888Z,-5.39
2018-03-18T04:57:03.308Z,-5.32
2018-03-18T04:58:13.251Z,-5.31
2018-03-18T04:59:22.938Z,-5.27
2018-03-18T05:00:32.886Z,-5.43
2018-03-18T05:01:42.368Z,-5.31
2018-03-18T05:02:51.796Z,-5.32
2018-03-18T05:04:01.540Z,-5.39
2018-03-18T05:05:11.248Z,-5.41
2018-03-18T05:06:20.676Z,-5.38
2018-03-18T05:07:30.630Z,-5.38
2018-03-18T05:08:40.578Z,-5.35
2018-03-18T05:09:50.282Z,-5.31
2018-03-18T05:11:00.227Z,-5.31
2018-03-18T05:12:10.199Z,-5.41
2018-03-18T05:13:19.903Z,-5.25
2018-03-18T05:14:29.370Z,-5.31
2018-03-18T05:15:39.066Z,-5.28
2018-03-18T05:16:49.015Z,-5.28
2018-03-18T05:17:58.442Z,-5.2
2018-03-18T05:19:08.390Z,-5.25
2018-03-18T05:20:18.074Z,-5.2
2018-03-18T05:21:28.018Z,-5.28
2018-03-18T05:22:38.012Z,-5.19
2018-03-18T05:23:47.954Z,-5.28
2018-03-18T05:24:57.636Z,-5.25
2018-03-18T05:26:07.584Z,-5.16
2018-03-18T05:27:17.537Z,-5.25
2018-03-18T05:28:27.488Z,-5.2
2018-03-18T05:29:37.446Z,-5.3
2018-03-18T05:30:46.359Z,-5.21
2018-03-18T05:31:55.541Z,-5.17
2018-03-18T05:33:05.249Z,-5.3
2018-03-18T05:34:14.422Z,-5.19
2018-03-18T05:35:24.368Z,-5.17
2018-03-18T05:36:34.321Z,-5.19
2018-03-18T05:37:43.755Z,-5.2
2018-03-18T05:38:53.461Z,-5.23
2018-03-18T05:40:02.626Z,-5.2
2018-03-18T05:41:12.333Z,-5.17
2018-03-18T05:42:22.292Z,-5.21
2018-03-18T05:43:32.235Z,-5.31
2018-03-18T05:44:42.196Z,-5.27
2018-03-18T05:45:52.151Z,-5.25
2018-03-18T05:47:02.117Z,-5.13
2018-03-18T05:48:12.092Z,-5.16
2018-03-18T05:49:22.051Z,-5.16
2018-03-18T05:50:31.482Z,-5.27
2018-03-18T05:51:41.189Z,-5.17
2018-03-18T05:52:51.143Z,-5.32
2018-03-18T05:54:00.850Z,-5.27
2018-03-18T05:55:10.541Z,-5.2
2018-03-18T05:56:20.305Z,-5.28
2018-03-18T05:57:30.364Z,-5.21
2018-03-18T05:58:40.056Z,-5.3
2018-03-18T05:59:50.011Z,-5.23
2018-03-18T06:00:59.971Z,-5.21
2018-03-18T06:02:09.666Z,-5.28
2018-03-18T06:03:19.379Z,-5.17
2018-03-18T06:04:29.066Z,-5.23
2018-03-18T06:05:39.025Z,-5.19
2018-03-18T06:06:48.733Z,-5.19
2018-03-18T06:07:58.492Z,-5.17
2018-03-18T06:09:07.931Z,-5.12
2018-03-18T06:10:17.873Z,-5.21
2018-03-18T06:11:27.640Z,-5.1
2018-03-18T06:12:37.676Z,-5.12
2018-03-18T06:13:47.371Z,-5.16
2018-03-18T06:14:57.326Z,-5.1
2018-03-18T06:16:07.282Z,-5.09
2018-03-18T06:17:16.981Z,-5.09
2018-03-18T06:18:26.730Z,-5.08
2018-03-18T06:19:36.433Z,-5.19
2018-03-18T06:20:46.132Z,-5.13
2018-03-18T06:21:55.575Z,-5.08
2018-03-18T06:23:05.263Z,-5.09
2018-03-18T06:24:14.722Z,-5.01
2018-03-18T06:25:24.684Z,-5.01
2018-03-18T06:26:34.381Z,-4.95
2018-03-18T06:27:44.324Z,-5
2018-03-18T06:28:54.020Z,-5
2018-03-18T06:30:03.976Z,-4.98
2018-03-18T06:31:13.949Z,-4.95
2018-03-18T06:32:23.903Z,-5
2018-03-18T06:33:33.908Z,-4.98
2018-03-18T06:34:43.345Z,-4.95
2018-03-18T06:35:53.035Z,-4.91
2018-03-18T06:37:02.467Z,-4.91
2018-03-18T06:38:12.271Z,-4.91
2018-03-18T06:39:21.972Z,-4.95
2018-03-18T06:40:31.668Z,-4.81
2018-03-18T06:41:41.633Z,-4.8
2018-03-18T06:42:51.074Z,-4.73
2018-03-18T06:44:01.019Z,-4.81
2018-03-18T06:45:10.726Z,-4.77
2018-03-18T06:46:20.439Z,-4.74
2018-03-18T06:47:30.397Z,-4.67
2018-03-18T06:48:39.844Z,-4.74
2018-03-18T06:49:49.532Z,-4.67
2018-03-18T06:50:59.458Z,-4.67
2018-03-18T06:52:09.400Z,-4.61
2018-03-18T06:53:18.834Z,-4.61
2018-03-18T06:54:28.808Z,-4.74
2018-03-18T06:55:38.494Z,-4.65
2018-03-18T06:56:48.442Z,-4.74
2018-03-18T06:57:58.147Z,-4.62
2018-03-18T06:59:07.582Z,-4.65
2018-03-18T07:00:17.280Z,-4.65
2018-03-18T07:01:27.239Z,-4.55
2018-03-18T07:02:36.973Z,-4.49
2018-03-18T07:03:46.663Z,-4.51
2018-03-18T07:04:56.368Z,-4.44
2018-03-18T07:06:06.069Z,-4.4
2018-03-18T07:07:16.017Z,-4.35
2018-03-18T07:08:26.008Z,-4.45
2018-03-18T07:09:35.961Z,-4.47
2018-03-18T07:10:45.403Z,-4.38
2018-03-18T07:11:54.850Z,-4.49
2018-03-18T07:13:04.802Z,-4.35
2018-03-18T07:14:14.581Z,-4.3
2018-03-18T07:15:24.279Z,-4.33
2018-03-18T07:16:34.255Z,-4.33
2018-03-18T07:17:43.981Z,-4.27
2018-03-18T07:18:53.683Z,-4.2
2018-03-18T07:20:03.238Z,-4.16
2018-03-18T07:21:12.691Z,-4.09
2018-03-18T07:22:22.709Z,-4.06
2018-03-18T07:23:32.683Z,-4.09
2018-03-18T07:24:42.632Z,-4.06
2018-03-18T07:25:52.591Z,-4.06
2018-03-18T07:27:02.289Z,-3.91
2018-03-18T07:28:12.285Z,-3.94
2018-03-18T07:29:22.237Z,-3.91
2018-03-18T07:30:31.936Z,-3.94
2018-03-18T07:31:41.909Z,-3.78
2018-03-18T07:32:51.602Z,-3.8
2018-03-18T07:34:01.568Z,-3.78
2018-03-18T07:35:11.284Z,-3.8
2018-03-18T07:36:21.251Z,-3.75
2018-03-18T07:37:31.249Z,-3.66
2018-03-18T07:38:41.103Z,-3.66
2018-03-18T07:39:50.902Z,-3.64
2018-03-18T07:41:00.877Z,-3.66
2018-03-18T07:42:10.859Z,-3.65
2018-03-18T07:43:20.625Z,-3.66
2018-03-18T07:44:30.076Z,-3.65
2018-03-18T07:45:39.768Z,-3.59
2018-03-18T07:46:49.480Z,-3.51
2018-03-18T07:47:59.174Z,-3.58
2018-03-18T07:49:09.132Z,-3.59
2018-03-18T07:50:19.084Z,-3.65
2018-03-18T07:51:29.033Z,-3.64
2018-03-18T07:52:38.714Z,-3.56
2018-03-18T07:53:48.147Z,-3.59
2018-03-18T07:54:58.104Z,-3.61
2018-03-18T07:56:07.543Z,-3.51
2018-03-18T07:57:17.503Z,-3.62
2018-03-18T07:58:27.461Z,-3.56
2018-03-18T07:59:37.411Z,-3.48
2018-03-18T08:00:47.107Z,-3.36
2018-03-18T08:01:56.819Z,-3.27
2018-03-18T08:03:06.713Z,-3.12
2018-03-18T08:04:15.936Z,-3.12
2018-03-18T08:05:25.902Z,-3.02
2018-03-18T08:06:35.857Z,-2.99
2018-03-18T08:07:45.289Z,-2.96
2018-03-18T08:08:54.986Z,-2.96
2018-03-18T08:10:04.700Z,-3.01
2018-03-18T08:11:13.878Z,-2.99
2018-03-18T08:12:23.058Z,-2.94
2018-03-18T08:13:33.012Z,-2.89
2018-03-18T08:14:42.438Z,-2.99
2018-03-18T08:15:52.390Z,-2.89
2018-03-18T08:17:02.134Z,-2.91
2018-03-18T08:18:12.074Z,-2.8
2018-03-18T08:19:21.782Z,-2.78
2018-03-18T08:20:31.504Z,-2.65
2018-03-18T08:21:41.205Z,-2.55
2018-03-18T08:22:51.232Z,-2.51
2018-03-18T08:24:01.194Z,-2.33
2018-03-18T08:25:10.890Z,-2.18
2018-03-18T08:26:20.635Z,-1.97
2018-03-18T08:27:30.332Z,-1.97
2018-03-18T08:28:40.290Z,-1.74
2018-03-18T08:29:49.999Z,-1.45
2018-03-18T08:30:59.965Z,-1.27
2018-03-18T08:32:10.014Z,-1.19
2018-03-18T08:33:19.983Z,-1.18
2018-03-18T08:34:29.953Z,-1.06
2018-03-18T08:35:39.667Z,-1.01
2018-03-18T08:36:49.635Z,-0.78
2018-03-18T08:37:59.583Z,-0.6
2018-03-18T08:39:09.549Z,-0.69
2018-03-18T08:40:19.247Z,-0.63
2018-03-18T08:41:29.292Z,-0.69
2018-03-18T08:42:39.260Z,-0.62
2018-03-18T08:43:49.240Z,-0.75
2018-03-18T08:44:59.204Z,-0.8
2018-03-18T08:46:08.928Z,-0.74
2018-03-18T08:47:18.911Z,-0.59
2018-03-18T08:48:28.613Z,-0.46
2018-03-18T08:49:38.608Z,-0.67
2018-03-18T08:50:48.583Z,-0.64
2018-03-18T08:51:58.300Z,-0.66
2018-03-18T08:53:08.254Z,-0.59
2018-03-18T08:54:18.212Z,-0.57
2018-03-18T08:55:27.658Z,-0.56
2018-03-18T08:56:37.637Z,-0.49
2018-03-18T08:57:47.358Z,-0.42
2018-03-18T08:58:56.808Z,-0.35
2018-03-18T09:00:06.779Z,-0.15
2018-03-18T09:01:16.218Z,-0.12
2018-03-18T09:02:25.936Z,-0.18
2018-03-18T09:03:35.374Z,-0.03
2018-03-18T09:04:45.089Z,0.24
2018-03-18T09:05:55.054Z,0.16
2018-03-18T09:07:04.500Z,0.16
2018-03-18T09:08:13.943Z,0.01
2018-03-18T09:09:23.925Z,-0.2
2018-03-18T09:10:33.645Z,-0.21
2018-03-18T09:11:43.361Z,-0.12
2018-03-18T09:12:53.067Z,0.06
2018-03-18T09:14:02.242Z,0.08
2018-03-18T09:15:12.473Z,0.08
2018-03-18T09:16:22.465Z,0.16
2018-03-18T09:17:31.920Z,0.4
2018-03-18T09:18:41.656Z,0.47
2018-03-18T09:19:51.365Z,0.48
2018-03-18T09:21:01.070Z,0.49
2018-03-18T09:22:10.265Z,0.7
2018-03-18T09:23:19.722Z,0.82
2018-03-18T09:24:29.688Z,0.81
2018-03-18T09:25:39.135Z,0.73
2018-03-18T09:26:48.882Z,0.66
2018-03-18T09:27:58.849Z,0.58
2018-03-18T09:29:08.292Z,0.56
2018-03-18T09:30:18.378Z,0.55
2018-03-18T09:31:28.431Z,0.49
2018-03-18T09:32:38.405Z,0.58
2018-03-18T09:33:48.381Z,0.63
2018-03-18T09:34:58.354Z,0.76
2018-03-18T09:36:08.063Z,1.1
2018-03-18T09:37:17.254Z,1.25
2018-03-18T09:38:27.257Z,1.1
2018-03-18T09:39:36.722Z,1.22
2018-03-18T09:40:46.705Z,0.94
2018-03-18T09:41:56.692Z,1.14
2018-03-18T09:43:06.147Z,1.22
2018-03-18T09:44:16.116Z,1.1
2018-03-18T09:45:26.091Z,1.18
2018-03-18T09:46:35.794Z,1.4
2018-03-18T09:47:45.230Z,1.48
2018-03-18T09:48:54.932Z,1.49
2018-03-18T09:50:04.899Z,1.39
2018-03-18T09:51:14.366Z,1.43
2018-03-18T09:52:24.360Z,1.07
2018-03-18T09:53:34.356Z,1
2018-03-18T09:54:44.325Z,1.16
2018-03-18T09:55:54.296Z,1.24
2018-03-18T09:57:04.011Z,1.22
2018-03-18T09:58:13.718Z,1.13
2018-03-18T09:59:23.424Z,1.27
2018-03-18T10:00:33.560Z,1.46
2018-03-18T10:01:43.274Z,1.48
2018-03-18T10:02:53.258Z,1.61
2018-03-18T10:04:02.960Z,1.81
2018-03-18T10:05:12.410Z,1.81
2018-03-18T10:06:22.397Z,2.03
2018-03-18T10:07:31.869Z,1.95
2018-03-18T10:08:41.577Z,1.82
2018-03-18T10:09:51.540Z,1.61
2018-03-18T10:11:01.517Z,1.63
2018-03-18T10:12:11.238Z,1.42
2018-03-18T10:13:20.688Z,1.6
2018-03-18T10:14:30.424Z,1.56
2018-03-18T10:15:40.404Z,2.01
2018-03-18T10:16:50.116Z,2.3
2018-03-18T10:18:00.086Z,2.34
2018-03-18T10:19:10.176Z,2.36
2018-03-18T10:20:20.494Z,2.4
2018-03-18T10:21:30.416Z,2.39
2018-03-18T10:22:40.155Z,2.21
2018-03-18T10:23:49.608Z,2.15
2018-03-18T10:24:59.592Z,2
2018-03-18T10:26:09.600Z,1.98
2018-03-18T10:27:19.567Z,2.21
2018-03-18T10:28:29.565Z,2.22
2018-03-18T10:29:39.539Z,2.08
2018-03-18T10:30:49.233Z,2.07
2018-03-18T10:31:58.963Z,2.3
2018-03-18T10:33:08.685Z,2.39
2018-03-18T10:34:18.404Z,2.26
2018-03-18T10:35:28.388Z,2.36
2018-03-18T10:36:38.125Z,2.28
2018-03-18T10:37:47.830Z,2.28
2018-03-18T10:38:57.795Z,2.3
2018-03-18T10:40:07.506Z,2.25
2018-03-18T10:41:17.219Z,2.39
2018-03-18T10:42:27.191Z,2.34
2018-03-18T10:43:37.185Z,2.26
2018-03-18T10:44:47.164Z,2.46
2018-03-18T10:45:56.866Z,2.59
2018-03-18T10:47:06.323Z,2.5
2018-03-18T10:48:16.326Z,2.75
2018-03-18T10:49:25.786Z,2.88
2018-03-18T10:50:35.768Z,3.01
2018-03-18T10:51:45.219Z,3.13
2018-03-18T10:52:54.664Z,3.45
2018-03-18T10:54:04.631Z,3.55
2018-03-18T10:55:14.609Z,3.49
2018-03-18T10:56:24.315Z,3.61
2018-03-18T10:57:34.041Z,3.46
2018-03-18T10:58:43.506Z,3.45
2018-03-18T10:59:53.500Z,3.11
2018-03-18T11:01:03.220Z,3.13
2018-03-18T11:02:12.942Z,3.13
2018-03-18T11:03:22.711Z,3.21
2018-03-18T11:04:32.690Z,3.31
2018-03-18T11:05:42.929Z,3.09
2018-03-18T11:06:52.945Z,3.21
2018-03-18T11:08:02.660Z,3.3
2018-03-18T11:09:12.628Z,3.08
2018-03-18T11:10:22.617Z,2.97
2018-03-18T11:11:32.584Z,2.82
2018-03-18T11:12:42.581Z,2.97
2018-03-18T11:13:52.557Z,3
2018-03-18T11:15:02.280Z,2.83
2018-03-18T11:16:12.493Z,2.8
2018-03-18T11:17:21.968Z,3.03
2018-03-18T11:18:31.951Z,3.29
2018-03-18T11:19:41.919Z,3.29
2018-03-18T11:20:51.892Z,3.48
2018-03-18T11:22:01.870Z,3.5
2018-03-18T11:23:11.855Z,3.45
2018-03-18T11:24:21.674Z,3.31
2018-03-18T11:25:31.402Z,3.37
2018-03-18T11:26:41.112Z,3.41
2018-03-18T11:27:51.097Z,3.43
2018-03-18T11:29:00.840Z,3.41
2018-03-18T11:30:10.738Z,3.34
2018-03-18T11:31:20.716Z,3.36
2018-03-18T11:32:30.706Z,3.61
2018-03-18T11:33:40.666Z,3.7
2018-03-18T11:34:50.636Z,3.67
2018-03-18T11:36:00.615Z,3.77
2018-03-18T11:37:10.597Z,3.91
2018-03-18T11:38:20.306Z,4.38
2018-03-18T11:39:29.788Z,4.25
2018-03-18T11:40:39.509Z,4.14
2018-03-18T11:41:49.016Z,4.18
2018-03-18T11:42:58.737Z,4.22
2018-03-18T11:44:07.939Z,3.81
2018-03-18T11:45:17.674Z,4.03
2018-03-18T11:46:27.130Z,4.02
2018-03-18T11:47:36.851Z,4.18
2018-03-18T11:48:46.573Z,4.31
2018-03-18T11:49:56.551Z,4.18
2018-03-18T11:51:06.286Z,4.09
2018-03-18T11:52:16.003Z,4.25
2018-03-18T11:53:25.969Z,4.42
2018-03-18T11:54:35.942Z,4.36
2018-03-18T11:55:45.666Z,4.56
2018-03-18T11:56:55.445Z,4.24
2018-03-18T11:58:05.431Z,4.25
2018-03-18T11:59:15.138Z,4.3
2018-03-18T12:00:24.355Z,4.5
2018-03-18T12:01:33.830Z,4.52
2018-03-18T12:02:44.061Z,4.5
2018-03-18T12:03:54.033Z,4.76
2018-03-18T12:05:03.750Z,4.53
2018-03-18T12:06:13.484Z,4.66
2018-03-18T12:07:23.191Z,4.87
2018-03-18T12:08:33.164Z,4.9
2018-03-18T12:09:43.143Z,5.22
2018-03-18T12:10:53.181Z,5.23
2018-03-18T12:12:02.901Z,5.52
2018-03-18T12:13:12.624Z,5.79
2018-03-18T12:14:22.388Z,5.94
2018-03-18T12:15:32.101Z,5.92
2018-03-18T12:16:42.083Z,6.06
2018-03-18T12:17:52.058Z,5.99
2018-03-18T12:19:01.778Z,5.77
2018-03-18T12:20:11.498Z,5.55
2018-03-18T12:21:21.507Z,5.46
2018-03-18T12:22:30.962Z,5.33
2018-03-18T12:23:40.423Z,5.44
2018-03-18T12:24:50.143Z,5.2
2018-03-18T12:25:59.598Z,5
2018-03-18T12:27:09.343Z,4.67
2018-03-18T12:28:19.048Z,4.52
2018-03-18T12:29:29.030Z,4.75
2018-03-18T12:30:38.767Z,5.36
2018-03-18T12:31:48.483Z,5.52
2018-03-18T12:32:58.484Z,5.67
2018-03-18T12:34:08.468Z,5.72
2018-03-18T12:35:18.184Z,5.7
2018-03-18T12:36:28.162Z,5.64
2018-03-18T12:37:37.618Z,5.87
2018-03-18T12:38:46.837Z,5.76
2018-03-18T12:39:56.829Z,5.58
2018-03-18T12:41:06.280Z,5.56
2018-03-18T12:42:16.009Z,5.1
2018-03-18T12:43:25.723Z,5.26
2018-03-18T12:44:35.693Z,5.47
2018-03-18T12:45:45.423Z,5.58
2018-03-18T12:46:54.874Z,5.69
2018-03-18T12:48:04.616Z,5.7
2018-03-18T12:49:14.347Z,5.72
2018-03-18T12:50:23.809Z,5.12
2018-03-18T12:51:33.787Z,5.16
2018-03-18T12:52:43.466Z,4.98
2018-03-18T12:53:53.189Z,4.92
2018-03-18T12:55:02.955Z,5.22
2018-03-18T12:56:12.945Z,5.31
2018-03-18T12:57:22.931Z,5.31
2018-03-18T12:58:32.931Z,5.18
2018-03-18T12:59:42.384Z,4.98
2018-03-18T13:00:52.358Z,5.28
2018-03-18T13:02:01.818Z,5.46
2018-03-18T13:03:11.789Z,5.34
2018-03-18T13:04:21.518Z,5.43
2018-03-18T13:05:30.979Z,5.55
2018-03-18T13:06:40.835Z,5.46
2018-03-18T13:07:50.584Z,5.29
2018-03-18T13:09:00.290Z,5.43
2018-03-18T13:10:10.014Z,5.65
2018-03-18T13:11:19.957Z,5.64
2018-03-18T13:12:29.147Z,5.97
2018-03-18T13:13:38.861Z,6.2
2018-03-18T13:14:48.316Z,6.44
2018-03-18T13:15:58.046Z,6.43
2018-03-18T13:17:07.781Z,6.13
2018-03-18T13:18:17.270Z,5.99
2018-03-18T13:19:27.266Z,6.05
2018-03-18T13:20:36.473Z,5.72
2018-03-18T13:21:45.161Z,5.56
2018-03-18T13:22:54.884Z,5.79
2018-03-18T13:24:04.596Z,5.58
2018-03-18T13:25:14.585Z,5.62
2018-03-18T13:26:24.307Z,5.62
2018-03-18T13:27:34.288Z,5.36
2018-03-18T13:28:44.008Z,5.19
2018-03-18T13:29:53.984Z,5.34
2018-03-18T13:31:03.427Z,4.97
2018-03-18T13:32:12.890Z,4.97
2018-03-18T13:33:22.594Z,5.28
2018-03-18T13:34:32.586Z,5.36
2018-03-18T13:35:42.568Z,5.22
2018-03-18T13:36:52.580Z,5.44
2018-03-18T13:38:02.806Z,5.67
2018-03-18T13:39:12.813Z,5.69
2018-03-18T13:40:22.526Z,5.44
2018-03-18T13:41:31.980Z,5.49
2018-03-18T13:42:41.713Z,5.43
2018-03-18T13:43:51.692Z,5.41
2018-03-18T13:45:01.675Z,5.44
2018-03-18T13:46:11.643Z,5.41
2018-03-18T13:47:21.367Z,5.34
2018-03-18T13:48:31.093Z,5.22
2018-03-18T13:49:40.545Z,5.47
2018-03-18T13:50:50.536Z,5.56
2018-03-18T13:52:00.262Z,5.49
2018-03-18T13:53:10.240Z,5.46
2018-03-18T13:54:19.708Z,5.8
2018-03-18T13:55:29.443Z,5.55
2018-03-18T13:56:38.889Z,5.38
2018-03-18T13:57:48.889Z,5.44
2018-03-18T13:58:58.864Z,5.64
2018-03-18T14:00:08.631Z,5.62
2018-03-18T14:01:18.477Z,5.83
2018-03-18T14:02:28.466Z,6.12
2018-03-18T14:03:38.488Z,6.13
2018-03-18T14:04:48.488Z,6.19
2018-03-18T14:05:58.270Z,6.05
2018-03-18T14:07:07.746Z,6.16
2018-03-18T14:08:17.742Z,6.09
2018-03-18T14:09:27.736Z,6.07
2018-03-18T14:10:37.747Z,5.59
2018-03-18T14:11:47.726Z,5.51
2018-03-18T14:12:57.457Z,5.25
2018-03-18T14:14:06.907Z,5.43
2018-03-18T14:15:16.628Z,5.73
2018-03-18T14:16:25.811Z,6.09
2018-03-18T14:17:35.538Z,6.34
2018-03-18T14:18:44.737Z,6.15
2018-03-18T14:19:54.190Z,5.73
2018-03-18T14:21:03.387Z,5.8
2018-03-18T14:22:13.362Z,5.43
2018-03-18T14:23:22.824Z,5.44
2018-03-18T14:24:32.817Z,5.54
2018-03-18T14:25:42.805Z,5.43
2018-03-18T14:26:52.785Z,5.18
2018-03-18T14:28:02.762Z,5.01
2018-03-18T14:29:12.238Z,4.98
2018-03-18T14:30:22.219Z,4.67
2018-03-18T14:31:32.403Z,4.75
2018-03-18T14:32:42.269Z,4.94
2018-03-18T14:33:51.976Z,4.67
2018-03-18T14:35:02.130Z,4.6
2018-03-18T14:36:12.130Z,4.7
2018-03-18T14:37:21.941Z,5.02
2018-03-18T14:38:31.715Z,5.01
2018-03-18T14:39:41.701Z,5.2
2018-03-18T14:40:51.679Z,5.19
2018-03-18T14:42:01.652Z,5.36
2018-03-18T14:43:10.851Z,5.41
2018-03-18T14:44:20.565Z,5.16
2018-03-18T14:45:30.569Z,5.02
2018-03-18T14:46:40.563Z,5.26
2018-03-18T14:47:50.011Z,5.15
2018-03-18T14:48:59.480Z,4.87
2018-03-18T14:50:09.232Z,4.98
2018-03-18T14:51:18.703Z,4.95
2018-03-18T14:52:28.439Z,5
2018-03-18T14:53:38.457Z,4.98
2018-03-18T14:54:48.188Z,4.74
2018-03-18T14:55:57.898Z,4.7
2018-03-18T14:57:07.623Z,5.13
2018-03-18T14:58:17.352Z,5.52
2018-03-18T14:59:27.192Z,5.52
2018-03-18T15:00:36.922Z,5.44
2018-03-18T15:01:46.400Z,5.13
2018-03-18T15:02:56.124Z,4.98
2018-03-18T15:04:05.842Z,4.66
2018-03-18T15:05:15.558Z,4.64
2018-03-18T15:06:25.627Z,4.56
2018-03-18T15:07:35.615Z,4.43
2018-03-18T15:08:45.328Z,4.46
2018-03-18T15:09:55.502Z,4.43
2018-03-18T15:11:05.266Z,4.5
2018-03-18T15:12:15.256Z,4.42
2018-03-18T15:13:25.258Z,4.5
2018-03-18T15:14:34.714Z,4.5